sensor_id;sensor_type;location;lat;lon;timestamp;pressure;altitude;pressure_sealevel;temperature;humidity
50590;BME280;36547;50.514;30.840;2023-04-25T00:00:50;99620.37;;;10.31;64.54
50590;BME280;36547;50.514;30.840;2023-04-25T00:01:53;99623.89;;;10.32;64.50
50590;BME280;36547;50.514;30.840;2023-04-25T00:02:55;99618.49;;;10.33;64.57
50590;BME280;36547;50.514;30.840;2023-04-25T00:03:58;99623.80;;;10.33;64.56
50590;BME280;36547;50.514;30.840;2023-04-25T00:05:01;99618.67;;;10.30;64.57
50590;BME280;36547;50.514;30.840;2023-04-25T00:06:05;99620.56;;;10.28;64.79
50590;BME280;36547;50.514;30.840;2023-04-25T00:07:07;99620.64;;;10.26;64.85
50590;BME280;36547;50.514;30.840;2023-04-25T00:08:10;99620.56;;;10.28;64.83
50590;BME280;36547;50.514;30.840;2023-04-25T00:09:12;99607.37;;;10.26;64.70
50590;BME280;36547;50.514;30.840;2023-04-25T00:10:16;99611.82;;;10.26;64.65
50590;BME280;36547;50.514;30.840;2023-04-25T00:11:18;99613.62;;;10.25;64.70
50590;BME280;36547;50.514;30.840;2023-04-25T00:12:20;99614.47;;;10.26;64.78
50590;BME280;36547;50.514;30.840;2023-04-25T00:13:23;99614.47;;;10.26;64.64
50590;BME280;36547;50.514;30.840;2023-04-25T00:14:25;99608.52;;;10.22;64.52
50590;BME280;36547;50.514;30.840;2023-04-25T00:15:28;99607.75;;;10.20;64.44
50590;BME280;36547;50.514;30.840;2023-04-25T00:16:30;99617.34;;;10.23;64.57
50590;BME280;36547;50.514;30.840;2023-04-25T00:17:33;99613.14;;;10.19;64.61
50590;BME280;36547;50.514;30.840;2023-04-25T00:18:35;99628.62;;;10.11;65.06
50590;BME280;36547;50.514;30.840;2023-04-25T00:19:37;99622.57;;;10.09;64.80
50590;BME280;36547;50.514;30.840;2023-04-25T00:20:40;99615.63;;;10.06;64.86
50590;BME280;36547;50.514;30.840;2023-04-25T00:21:42;99614.78;;;10.06;65.06
50590;BME280;36547;50.514;30.840;2023-04-25T00:22:44;99605.88;;;10.07;65.03
50590;BME280;36547;50.514;30.840;2023-04-25T00:23:47;99602.45;;;10.05;64.91
50590;BME280;36547;50.514;30.840;2023-04-25T00:24:50;99611.35;;;10.04;65.20
50590;BME280;36547;50.514;30.840;2023-04-25T00:25:52;99611.35;;;10.04;65.16
50590;BME280;36547;50.514;30.840;2023-04-25T00:26:54;99615.03;;;10.01;65.33
50590;BME280;36547;50.514;30.840;2023-04-25T00:27:56;99614.17;;;10.01;65.22
50590;BME280;36547;50.514;30.840;2023-04-25T00:28:59;99606.76;;;9.91;65.28
50590;BME280;36547;50.514;30.840;2023-04-25T00:30:02;99601.45;;;9.91;65.19
50590;BME280;36547;50.514;30.840;2023-04-25T00:31:04;99606.07;;;9.88;65.19
50590;BME280;36547;50.514;30.840;2023-04-25T00:32:07;99604.45;;;9.85;65.47
50590;BME280;36547;50.514;30.840;2023-04-25T00:33:09;99599.14;;;9.85;65.50
50590;BME280;36547;50.514;30.840;2023-04-25T00:34:11;99601.88;;;9.84;65.59
50590;BME280;36547;50.514;30.840;2023-04-25T00:35:14;99596.86;;;9.79;65.68
50590;BME280;36547;50.514;30.840;2023-04-25T00:36:16;99596.09;;;9.77;65.69
50590;BME280;36547;50.514;30.840;2023-04-25T00:37:19;99593.43;;;9.77;65.83
50590;BME280;36547;50.514;30.840;2023-04-25T00:38:22;99589.06;;;9.76;65.97
50590;BME280;36547;50.514;30.840;2023-04-25T00:39:24;99595.14;;;9.78;65.82
50590;BME280;36547;50.514;30.840;2023-04-25T00:40:27;99591.89;;;9.73;65.53
50590;BME280;36547;50.514;30.840;2023-04-25T00:41:31;99587.35;;;9.75;65.42
50590;BME280;36547;50.514;30.840;2023-04-25T00:42:35;99588.13;;;9.77;65.42
50590;BME280;36547;50.514;30.840;2023-04-25T00:43:37;99592.74;;;9.74;65.51
50590;BME280;36547;50.514;30.840;2023-04-25T00:44:39;99588.63;;;9.68;65.86
50590;BME280;36547;50.514;30.840;2023-04-25T00:45:43;99588.83;;;9.65;65.74
50590;BME280;36547;50.514;30.840;2023-04-25T00:46:47;99588.83;;;9.65;65.76
50590;BME280;36547;50.514;30.840;2023-04-25T00:47:49;99588.83;;;9.65;66.20
50590;BME280;36547;50.514;30.840;2023-04-25T00:48:52;99599.61;;;9.62;66.02
50590;BME280;36547;50.514;30.840;2023-04-25T00:49:54;99594.47;;;9.59;66.03
50590;BME280;36547;50.514;30.840;2023-04-25T00:50:58;99595.58;;;9.55;65.78
50590;BME280;36547;50.514;30.840;2023-04-25T00:52:01;99593.70;;;9.57;66.04
50590;BME280;36547;50.514;30.840;2023-04-25T00:53:04;99592.59;;;9.61;66.36
50590;BME280;36547;50.514;30.840;2023-04-25T00:54:07;99597.89;;;9.61;66.39
50590;BME280;36547;50.514;30.840;2023-04-25T00:55:10;99593.53;;;9.60;66.50
50590;BME280;36547;50.514;30.840;2023-04-25T00:56:14;99596.35;;;9.57;66.45
50590;BME280;36547;50.514;30.840;2023-04-25T00:57:16;99593.12;;;9.52;66.53
50590;BME280;36547;50.514;30.840;2023-04-25T00:58:20;99591.21;;;9.54;66.56
50590;BME280;36547;50.514;30.840;2023-04-25T00:59:23;99589.70;;;9.50;66.43
50590;BME280;36547;50.514;30.840;2023-04-25T01:00:26;99596.88;;;9.48;66.68
50590;BME280;36547;50.514;30.840;2023-04-25T01:01:30;99595.86;;;9.50;66.66
50590;BME280;36547;50.514;30.840;2023-04-25T01:02:34;99597.82;;;9.47;67.18
50590;BME280;36547;50.514;30.840;2023-04-25T01:03:38;99599.62;;;9.46;67.35
50590;BME280;36547;50.514;30.840;2023-04-25T01:04:43;99602.52;;;9.42;67.02
50590;BME280;36547;50.514;30.840;2023-04-25T01:05:45;99598.23;;;9.39;67.01
50590;BME280;36547;50.514;30.840;2023-04-25T01:06:49;99606.39;;;9.36;67.11
50590;BME280;36547;50.514;30.840;2023-04-25T01:07:52;99599.45;;;9.34;67.15
50590;BME280;36547;50.514;30.840;2023-04-25T01:08:56;99602.02;;;9.35;67.01
50590;BME280;36547;50.514;30.840;2023-04-25T01:09:58;99600.30;;;9.34;67.29
50590;BME280;36547;50.514;30.840;2023-04-25T01:11:01;99599.45;;;9.34;67.55
50590;BME280;36547;50.514;30.840;2023-04-25T01:12:03;99592.44;;;9.33;67.54
50590;BME280;36547;50.514;30.840;2023-04-25T01:13:06;99580.28;;;9.29;67.41
50590;BME280;36547;50.514;30.840;2023-04-25T01:14:08;99587.30;;;9.30;67.42
50590;BME280;36547;50.514;30.840;2023-04-25T01:15:11;99588.23;;;9.29;67.61
50590;BME280;36547;50.514;30.840;2023-04-25T01:16:15;99582.52;;;9.20;67.82
50590;BME280;36547;50.514;30.840;2023-04-25T01:17:18;99587.73;;;9.22;67.68
50590;BME280;36547;50.514;30.840;2023-04-25T01:18:21;99583.29;;;9.23;67.78
50590;BME280;36547;50.514;30.840;2023-04-25T01:19:24;99584.23;;;9.21;67.80
50590;BME280;36547;50.514;30.840;2023-04-25T01:20:26;99580.44;;;9.26;67.77
50590;BME280;36547;50.514;30.840;2023-04-25T01:21:31;99587.54;;;9.25;68.00
50590;BME280;36547;50.514;30.840;2023-04-25T01:22:34;99585.94;;;9.23;67.97
50590;BME280;36547;50.514;30.840;2023-04-25T01:23:38;99584.03;;;9.25;67.81
50590;BME280;36547;50.514;30.840;2023-04-25T01:24:47;99583.38;;;9.37;67.95
50590;BME280;36547;50.514;30.840;2023-04-25T01:25:50;99578.31;;;9.16;68.24
50590;BME280;36547;50.514;30.840;2023-04-25T01:26:54;99584.55;;;9.15;68.48
50590;BME280;36547;50.514;30.840;2023-04-25T01:27:58;99583.70;;;9.15;68.48
50590;BME280;36547;50.514;30.840;2023-04-25T01:29:04;99583.86;;;9.12;68.47
50590;BME280;36547;50.514;30.840;2023-04-25T01:30:08;99582.84;;;9.14;68.17
50590;BME280;36547;50.514;30.840;2023-04-25T01:31:12;99578.39;;;9.15;68.16
50590;BME280;36547;50.514;30.840;2023-04-25T01:32:14;99577.70;;;9.11;68.23
50590;BME280;36547;50.514;30.840;2023-04-25T01:33:19;99582.42;;;9.06;68.20
50590;BME280;36547;50.514;30.840;2023-04-25T01:34:23;99575.98;;;9.10;67.91
50590;BME280;36547;50.514;30.840;2023-04-25T01:35:25;99578.05;;;9.05;68.13
50590;BME280;36547;50.514;30.840;2023-04-25T01:36:30;99577.03;;;9.08;68.22
50590;BME280;36547;50.514;30.840;2023-04-25T01:37:33;99583.20;;;9.08;68.14
50590;BME280;36547;50.514;30.840;2023-04-25T01:38:36;99578.05;;;9.05;68.22
50590;BME280;36547;50.514;30.840;2023-04-25T01:39:38;99576.18;;;9.07;68.31
50590;BME280;36547;50.514;30.840;2023-04-25T01:40:41;99570.88;;;9.07;68.46
50590;BME280;36547;50.514;30.840;2023-04-25T01:41:48;99569.33;;;9.03;68.57
50590;BME280;36547;50.514;30.840;2023-04-25T01:42:51;99569.33;;;9.03;68.39
50590;BME280;36547;50.514;30.840;2023-04-25T01:43:55;99567.61;;;9.02;68.39
50590;BME280;36547;50.514;30.840;2023-04-25T01:44:58;99573.77;;;9.03;68.70
50590;BME280;36547;50.514;30.840;2023-04-25T01:46:00;99570.19;;;9.04;69.04
50590;BME280;36547;50.514;30.840;2023-04-25T01:47:02;99571.05;;;9.04;68.95
50590;BME280;36547;50.514;30.840;2023-04-25T01:48:05;99568.47;;;9.03;68.76
50590;BME280;36547;50.514;30.840;2023-04-25T01:49:08;99578.99;;;9.04;68.98
50590;BME280;36547;50.514;30.840;2023-04-25T01:50:11;99575.41;;;9.05;68.93
50590;BME280;36547;50.514;30.840;2023-04-25T01:51:13;99571.89;;;9.05;68.92
50590;BME280;36547;50.514;30.840;2023-04-25T01:52:16;99573.61;;;9.06;68.82
50590;BME280;36547;50.514;30.840;2023-04-25T01:53:18;99577.12;;;9.06;68.60
50590;BME280;36547;50.514;30.840;2023-04-25T01:54:21;99569.33;;;9.03;68.59
50590;BME280;36547;50.514;30.840;2023-04-25T01:55:24;99576.58;;;9.00;68.80
50590;BME280;36547;50.514;30.840;2023-04-25T01:56:49;99581.80;;;9.01;68.64
50590;BME280;36547;50.514;30.840;2023-04-25T01:57:50;99564.34;;;8.97;68.38
50590;BME280;36547;50.514;30.840;2023-04-25T01:58:54;99576.66;;;8.98;68.53
50590;BME280;36547;50.514;30.840;2023-04-25T02:00:01;99576.08;;;8.93;68.61
50590;BME280;36547;50.514;30.840;2023-04-25T02:01:15;99572.58;;;8.93;68.68
50590;BME280;36547;50.514;30.840;2023-04-25T02:02:19;99569.14;;;8.91;68.44
50590;BME280;36547;50.514;30.840;2023-04-25T02:03:22;99574.69;;;8.86;68.54
50590;BME280;36547;50.514;30.840;2023-04-25T02:04:27;99564.86;;;8.88;68.54
50590;BME280;36547;50.514;30.840;2023-04-25T02:05:35;99566.66;;;8.88;68.63
50590;BME280;36547;50.514;30.840;2023-04-25T02:06:38;99564.01;;;8.88;68.67
50590;BME280;36547;50.514;30.840;2023-04-25T02:07:41;99565.87;;;8.85;68.77
50590;BME280;36547;50.514;30.840;2023-04-25T02:08:44;99564.24;;;8.83;68.92
50590;BME280;36547;50.514;30.840;2023-04-25T02:09:48;99557.16;;;8.83;68.84
50590;BME280;36547;50.514;30.840;2023-04-25T02:10:53;99558.87;;;8.84;69.06
50590;BME280;36547;50.514;30.840;2023-04-25T02:11:55;99559.14;;;8.80;69.10
50590;BME280;36547;50.514;30.840;2023-04-25T02:13:03;99560.08;;;8.79;69.06
50590;BME280;36547;50.514;30.840;2023-04-25T02:14:19;99559.02;;;8.81;69.04
50590;BME280;36547;50.514;30.840;2023-04-25T02:15:26;99561.78;;;8.80;69.13
50590;BME280;36547;50.514;30.840;2023-04-25T02:16:31;99555.52;;;8.81;68.95
50590;BME280;36547;50.514;30.840;2023-04-25T02:17:35;99561.59;;;8.83;69.43
50590;BME280;36547;50.514;30.840;2023-04-25T02:18:37;99553.64;;;8.83;69.41
50590;BME280;36547;50.514;30.840;2023-04-25T02:19:41;99552.71;;;8.84;69.58
50590;BME280;36547;50.514;30.840;2023-04-25T02:20:44;99558.87;;;8.84;69.63
50590;BME280;36547;50.514;30.840;2023-04-25T02:21:47;99554.34;;;8.86;69.74
50590;BME280;36547;50.514;30.840;2023-04-25T02:22:50;99550.67;;;8.89;69.66
50590;BME280;36547;50.514;30.840;2023-04-25T02:23:52;99546.16;;;8.91;69.71
50590;BME280;36547;50.514;30.840;2023-04-25T02:24:55;99547.78;;;8.94;69.69
50590;BME280;36547;50.514;30.840;2023-04-25T02:25:57;99551.30;;;8.94;69.62
50590;BME280;36547;50.514;30.840;2023-04-25T02:27:00;99553.75;;;8.97;69.49
50590;BME280;36547;50.514;30.840;2023-04-25T02:28:03;99549.31;;;8.98;69.24
50590;BME280;36547;50.514;30.840;2023-04-25T02:29:06;99542.98;;;9.00;69.29
50590;BME280;36547;50.514;30.840;2023-04-25T02:30:09;99545.72;;;8.99;69.37
50590;BME280;36547;50.514;30.840;2023-04-25T02:31:12;99550.08;;;9.00;69.21
50590;BME280;36547;50.514;30.840;2023-04-25T02:32:14;99550.00;;;9.01;69.34
50590;BME280;36547;50.514;30.840;2023-04-25T02:33:16;99548.28;;;9.00;69.39
50590;BME280;36547;50.514;30.840;2023-04-25T02:34:19;99557.02;;;9.02;69.22
50590;BME280;36547;50.514;30.840;2023-04-25T02:35:21;99553.59;;;9.00;69.27
50590;BME280;36547;50.514;30.840;2023-04-25T02:36:24;99550.86;;;9.02;69.28
50590;BME280;36547;50.514;30.840;2023-04-25T02:37:26;99555.30;;;9.01;69.35
50590;BME280;36547;50.514;30.840;2023-04-25T02:38:29;99557.02;;;9.02;69.41
50590;BME280;36547;50.514;30.840;2023-04-25T02:39:31;99560.59;;;9.01;69.44
50590;BME280;36547;50.514;30.840;2023-04-25T02:40:34;99558.89;;;9.00;69.43
50590;BME280;36547;50.514;30.840;2023-04-25T02:41:36;99552.73;;;9.00;69.33
50590;BME280;36547;50.514;30.840;2023-04-25T02:42:38;99552.03;;;8.96;69.39
50590;BME280;36547;50.514;30.840;2023-04-25T02:43:41;99557.09;;;9.01;69.28
50590;BME280;36547;50.514;30.840;2023-04-25T02:44:43;99551.80;;;9.01;69.33
50590;BME280;36547;50.514;30.840;2023-04-25T02:45:46;99548.05;;;9.05;69.18
50590;BME280;36547;50.514;30.840;2023-04-25T02:46:48;99551.72;;;9.02;69.02
50590;BME280;36547;50.514;30.840;2023-04-25T02:47:50;99545.48;;;9.03;68.97
50590;BME280;36547;50.514;30.840;2023-04-25T02:48:54;99548.28;;;9.00;69.10
50590;BME280;36547;50.514;30.840;2023-04-25T02:49:57;99548.98;;;9.04;69.03
50590;BME280;36547;50.514;30.840;2023-04-25T02:50:59;99550.00;;;9.01;68.97
50590;BME280;36547;50.514;30.840;2023-04-25T02:52:02;99548.45;;;8.97;68.84
50590;BME280;36547;50.514;30.840;2023-04-25T02:53:05;99553.09;;;8.94;68.86
50590;BME280;36547;50.514;30.840;2023-04-25T02:54:09;99551.30;;;8.94;68.76
50590;BME280;36547;50.514;30.840;2023-04-25T02:55:13;99548.80;;;8.91;68.81
50590;BME280;36547;50.514;30.840;2023-04-25T02:56:17;99544.60;;;8.87;68.95
50590;BME280;36547;50.514;30.840;2023-04-25T02:57:20;99541.17;;;8.85;68.96
50590;BME280;36547;50.514;30.840;2023-04-25T02:58:22;99541.95;;;8.87;69.10
50590;BME280;36547;50.514;30.840;2023-04-25T02:59:27;99549.13;;;8.85;69.00
50590;BME280;36547;50.514;30.840;2023-04-25T03:00:30;99550.14;;;8.82;69.22
50590;BME280;36547;50.514;30.840;2023-04-25T03:01:32;99549.28;;;8.82;69.39
50590;BME280;36547;50.514;30.840;2023-04-25T03:02:34;99549.28;;;8.82;69.50
50590;BME280;36547;50.514;30.840;2023-04-25T03:03:36;99551.19;;;8.80;69.46
50590;BME280;36547;50.514;30.840;2023-04-25T03:04:40;99548.27;;;8.84;69.35
50590;BME280;36547;50.514;30.840;2023-04-25T03:05:43;99541.42;;;8.80;69.40
50590;BME280;36547;50.514;30.840;2023-04-25T03:06:46;99554.59;;;8.82;69.32
50590;BME280;36547;50.514;30.840;2023-04-25T03:07:49;99561.78;;;8.80;69.20
50590;BME280;36547;50.514;30.840;2023-04-25T03:08:52;99553.22;;;8.75;69.17
50590;BME280;36547;50.514;30.840;2023-04-25T03:09:55;99555.17;;;8.71;69.29
50590;BME280;36547;50.514;30.840;2023-04-25T03:10:58;99557.81;;;8.71;69.58
50590;BME280;36547;50.514;30.840;2023-04-25T03:12:01;99557.13;;;8.68;69.51
50590;BME280;36547;50.514;30.840;2023-04-25T03:13:03;99558.17;;;8.65;69.61
50590;BME280;36547;50.514;30.840;2023-04-25T03:14:05;99548.59;;;8.63;69.62
50590;BME280;36547;50.514;30.840;2023-04-25T03:15:08;99555.75;;;8.61;69.67
50590;BME280;36547;50.514;30.840;2023-04-25T03:16:11;99554.04;;;8.60;69.70
50590;BME280;36547;50.514;30.840;2023-04-25T03:17:14;99555.05;;;8.57;69.94
50590;BME280;36547;50.514;30.840;2023-04-25T03:18:16;99548.74;;;8.60;69.94
50590;BME280;36547;50.514;30.840;2023-04-25T03:19:19;99555.83;;;8.59;69.68
50590;BME280;36547;50.514;30.840;2023-04-25T03:20:23;99558.41;;;8.61;69.74
50590;BME280;36547;50.514;30.840;2023-04-25T03:21:26;99554.81;;;8.62;70.04
50590;BME280;36547;50.514;30.840;2023-04-25T03:22:28;99550.45;;;8.61;70.12
50590;BME280;36547;50.514;30.840;2023-04-25T03:23:31;99551.31;;;8.61;70.04
50590;BME280;36547;50.514;30.840;2023-04-25T03:24:33;99548.59;;;8.63;70.18
50590;BME280;36547;50.514;30.840;2023-04-25T03:25:35;99550.30;;;8.64;70.29
50590;BME280;36547;50.514;30.840;2023-04-25T03:26:39;99549.95;;;8.70;70.21
50590;BME280;36547;50.514;30.840;2023-04-25T03:27:41;99549.17;;;8.68;70.18
50590;BME280;36547;50.514;30.840;2023-04-25T03:28:44;99547.22;;;8.71;70.23
50590;BME280;36547;50.514;30.840;2023-04-25T03:29:47;99547.14;;;8.73;70.26
50590;BME280;36547;50.514;30.840;2023-04-25T03:30:50;99546.21;;;8.74;70.21
50590;BME280;36547;50.514;30.840;2023-04-25T03:31:52;99549.63;;;8.76;70.13
50590;BME280;36547;50.514;30.840;2023-04-25T03:32:54;99550.41;;;8.78;69.94
50590;BME280;36547;50.514;30.840;2023-04-25T03:33:57;99554.66;;;8.80;69.59
50590;BME280;36547;50.514;30.840;2023-04-25T03:35:00;99551.19;;;8.80;69.48
50590;BME280;36547;50.514;30.840;2023-04-25T03:36:03;99556.48;;;8.80;69.33
50590;BME280;36547;50.514;30.840;2023-04-25T03:37:06;99547.57;;;8.81;69.29
50590;BME280;36547;50.514;30.840;2023-04-25T03:38:10;99554.59;;;8.82;69.50
50590;BME280;36547;50.514;30.840;2023-04-25T03:39:14;99551.70;;;8.86;69.67
50590;BME280;36547;50.514;30.840;2023-04-25T03:40:19;99550.84;;;8.86;69.51
50590;BME280;36547;50.514;30.840;2023-04-25T03:41:29;99560.42;;;8.89;69.55
50590;BME280;36547;50.514;30.840;2023-04-25T03:42:33;99554.27;;;8.88;69.88
50590;BME280;36547;50.514;30.840;2023-04-25T03:43:36;99562.98;;;8.90;70.27
50590;BME280;36547;50.514;30.840;2023-04-25T03:44:40;99557.77;;;8.89;70.10
50590;BME280;36547;50.514;30.840;2023-04-25T03:45:43;99557.61;;;8.92;70.23
50590;BME280;36547;50.514;30.840;2023-04-25T03:46:45;99557.53;;;8.93;70.06
50590;BME280;36547;50.514;30.840;2023-04-25T03:47:47;99560.92;;;8.95;70.37
50590;BME280;36547;50.514;30.840;2023-04-25T03:48:50;99562.47;;;8.99;70.31
50590;BME280;36547;50.514;30.840;2023-04-25T03:49:55;99555.30;;;9.01;70.21
50590;BME280;36547;50.514;30.840;2023-04-25T03:50:58;99563.02;;;9.06;70.08
50590;BME280;36547;50.514;30.840;2023-04-25T03:52:01;99560.08;;;9.10;70.10
50590;BME280;36547;50.514;30.840;2023-04-25T03:53:05;99555.48;;;9.14;69.80
50590;BME280;36547;50.514;30.840;2023-04-25T03:54:09;99550.87;;;9.17;69.96
50590;BME280;36547;50.514;30.840;2023-04-25T03:55:15;99550.70;;;9.20;70.12
50590;BME280;36547;50.514;30.840;2023-04-25T03:56:18;99557.52;;;9.25;70.01
50590;BME280;36547;50.514;30.840;2023-04-25T03:57:21;99552.13;;;9.26;70.03
50590;BME280;36547;50.514;30.840;2023-04-25T03:58:24;99554.54;;;9.31;70.00
50590;BME280;36547;50.514;30.840;2023-04-25T03:59:27;99558.73;;;9.35;69.68
50590;BME280;36547;50.514;30.840;2023-04-25T04:00:29;99555.14;;;9.36;69.45
50590;BME280;36547;50.514;30.840;2023-04-25T04:01:32;99561.96;;;9.40;69.32
50590;BME280;36547;50.514;30.840;2023-04-25T04:02:34;99549.64;;;9.39;69.32
50590;BME280;36547;50.514;30.840;2023-04-25T04:03:37;99549.64;;;9.39;69.32
50590;BME280;36547;50.514;30.840;2023-04-25T04:04:40;99553.07;;;9.41;69.38
50590;BME280;36547;50.514;30.840;2023-04-25T04:05:44;99554.95;;;9.39;69.33
50590;BME280;36547;50.514;30.840;2023-04-25T04:06:47;99552.22;;;9.40;69.38
50590;BME280;36547;50.514;30.840;2023-04-25T04:07:51;99552.22;;;9.40;69.52
50590;BME280;36547;50.514;30.840;2023-04-25T04:08:55;99547.69;;;9.42;69.51
50590;BME280;36547;50.514;30.840;2023-04-25T04:09:59;99545.88;;;9.43;69.54
50590;BME280;36547;50.514;30.840;2023-04-25T04:11:03;99549.31;;;9.45;69.36
50590;BME280;36547;50.514;30.840;2023-04-25T04:12:06;99544.00;;;9.45;69.32
50590;BME280;36547;50.514;30.840;2023-04-25T04:13:09;99558.04;;;9.47;69.42
50590;BME280;36547;50.514;30.840;2023-04-25T04:14:11;99556.33;;;9.46;69.43
50590;BME280;36547;50.514;30.840;2023-04-25T04:15:15;99550.86;;;9.49;69.30
50590;BME280;36547;50.514;30.840;2023-04-25T04:16:20;99550.00;;;9.48;69.32
50590;BME280;36547;50.514;30.840;2023-04-25T04:17:22;99552.57;;;9.50;69.37
50590;BME280;36547;50.514;30.840;2023-04-25T04:18:26;99552.37;;;9.53;69.19
50590;BME280;36547;50.514;30.840;2023-04-25T04:19:30;99550.69;;;9.52;69.35
50590;BME280;36547;50.514;30.840;2023-04-25T04:20:35;99560.33;;;9.53;69.36
50590;BME280;36547;50.514;30.840;2023-04-25T04:21:38;99553.22;;;9.53;69.55
50590;BME280;36547;50.514;30.840;2023-04-25T04:22:41;99557.50;;;9.56;69.56
50590;BME280;36547;50.514;30.840;2023-04-25T04:23:45;99556.48;;;9.58;69.68
50590;BME280;36547;50.514;30.840;2023-04-25T04:24:47;99553.74;;;9.60;69.74
50590;BME280;36547;50.514;30.840;2023-04-25T04:25:51;99551.77;;;9.64;69.66
50590;BME280;36547;50.514;30.840;2023-04-25T04:27:05;99551.86;;;9.62;69.64
50590;BME280;36547;50.514;30.840;2023-04-25T04:28:09;99553.58;;;9.63;69.50
50590;BME280;36547;50.514;30.840;2023-04-25T04:29:19;99552.80;;;9.61;69.67
50590;BME280;36547;50.514;30.840;2023-04-25T04:30:36;99551.86;;;9.62;69.79
50590;BME280;36547;50.514;30.840;2023-04-25T04:31:40;99549.03;;;9.65;70.09
50590;BME280;36547;50.514;30.840;2023-04-25T04:32:43;99549.69;;;9.69;70.35
50590;BME280;36547;50.514;30.840;2023-04-25T04:33:45;99547.04;;;9.69;70.09
50590;BME280;36547;50.514;30.840;2023-04-25T04:34:49;99535.40;;;9.71;69.66
50590;BME280;36547;50.514;30.840;2023-04-25T04:35:53;99539.67;;;9.74;69.50
50590;BME280;36547;50.514;30.840;2023-04-25T04:36:57;99542.16;;;9.77;69.21
50590;BME280;36547;50.514;30.840;2023-04-25T04:38:00;99533.26;;;9.78;69.09
50590;BME280;36547;50.514;30.840;2023-04-25T04:39:05;99542.08;;;9.78;68.82
50590;BME280;36547;50.514;30.840;2023-04-25T04:40:11;99532.31;;;9.79;68.85
50590;BME280;36547;50.514;30.840;2023-04-25T04:41:18;99541.87;;;9.81;68.91
50590;BME280;36547;50.514;30.840;2023-04-25T04:42:22;99532.02;;;9.83;68.96
50590;BME280;36547;50.514;30.840;2023-04-25T04:43:45;99534.50;;;9.86;68.98
50590;BME280;36547;50.514;30.840;2023-04-25T04:44:54;99533.60;;;10.02;68.79
50590;BME280;36547;50.514;30.840;2023-04-25T04:46:04;99530.73;;;9.90;68.76
50590;BME280;36547;50.514;30.840;2023-04-25T04:47:26;99534.07;;;9.94;68.85
50590;BME280;36547;50.514;30.840;2023-04-25T04:48:33;99532.06;;;9.98;68.49
50590;BME280;36547;50.514;30.840;2023-04-25T04:49:40;99526.75;;;9.98;68.55
50590;BME280;36547;50.514;30.840;2023-04-25T04:50:43;99530.95;;;10.02;68.60
50590;BME280;36547;50.514;30.840;2023-04-25T04:52:00;99530.00;;;10.03;68.50
50590;BME280;36547;50.514;30.840;2023-04-25T04:53:10;99538.00;;;10.17;68.44
50590;BME280;36547;50.514;30.840;2023-04-25T04:54:13;99535.14;;;10.06;68.37
50590;BME280;36547;50.514;30.840;2023-04-25T04:55:16;99532.19;;;10.10;68.63
50590;BME280;36547;50.514;30.840;2023-04-25T04:56:20;99524.98;;;10.12;68.66
50590;BME280;36547;50.514;30.840;2023-04-25T04:57:25;99530.98;;;10.16;69.06
50590;BME280;36547;50.514;30.840;2023-04-25T04:58:38;99530.83;;;10.19;68.95
50590;BME280;36547;50.514;30.840;2023-04-25T04:59:57;99532.36;;;10.23;68.69
50590;BME280;36547;50.514;30.840;2023-04-25T05:01:06;99531.44;;;10.38;68.58
50590;BME280;36547;50.514;30.840;2023-04-25T05:02:11;99531.98;;;10.29;68.60
50590;BME280;36547;50.514;30.840;2023-04-25T05:03:21;99529.14;;;10.32;68.48
50590;BME280;36547;50.514;30.840;2023-04-25T05:04:30;99532.75;;;10.45;68.67
50590;BME280;36547;50.514;30.840;2023-04-25T05:05:37;99542.06;;;10.38;68.73
50590;BME280;36547;50.514;30.840;2023-04-25T05:06:42;99539.19;;;10.41;68.73
50590;BME280;36547;50.514;30.840;2023-04-25T05:07:56;99535.41;;;10.45;68.68
50590;BME280;36547;50.514;30.840;2023-04-25T05:09:09;99537.03;;;10.48;68.28
50590;BME280;36547;50.514;30.840;2023-04-25T05:10:25;99537.70;;;10.51;68.36
50590;BME280;36547;50.514;30.840;2023-04-25T05:11:39;99538.34;;;10.55;67.99
50590;BME280;36547;50.514;30.840;2023-04-25T05:13:02;99532.76;;;10.59;68.34
50590;BME280;36547;50.514;30.840;2023-04-25T05:14:06;99540.45;;;10.64;68.19
50590;BME280;36547;50.514;30.840;2023-04-25T05:15:13;99532.39;;;10.66;68.03
50590;BME280;36547;50.514;30.840;2023-04-25T05:16:19;99533.03;;;10.69;68.22
50590;BME280;36547;50.514;30.840;2023-04-25T05:17:30;99538.07;;;10.74;68.22
50590;BME280;36547;50.514;30.840;2023-04-25T05:18:39;99532.57;;;10.77;67.88
50590;BME280;36547;50.514;30.840;2023-04-25T05:19:46;99537.80;;;10.78;67.33
50590;BME280;36547;50.514;30.840;2023-04-25T05:20:53;99535.81;;;10.82;67.39
50590;BME280;36547;50.514;30.840;2023-04-25T05:21:57;99535.59;;;10.85;67.52
50590;BME280;36547;50.514;30.840;2023-04-25T05:23:01;99532.84;;;10.86;67.22
50590;BME280;36547;50.514;30.840;2023-04-25T05:24:12;99532.66;;;10.89;67.29
50590;BME280;36547;50.514;30.840;2023-04-25T05:25:33;99528.00;;;10.93;67.36
50590;BME280;36547;50.514;30.840;2023-04-25T05:26:37;99533.95;;;10.96;67.25
50590;BME280;36547;50.514;30.840;2023-04-25T05:27:42;99527.41;;;11.02;67.92
50590;BME280;36547;50.514;30.840;2023-04-25T05:28:52;99524.66;;;11.04;67.54
50590;BME280;36547;50.514;30.840;2023-04-25T05:29:56;99523.61;;;11.06;67.57
50590;BME280;36547;50.514;30.840;2023-04-25T05:31:01;99525.13;;;11.10;67.56
50590;BME280;36547;50.514;30.840;2023-04-25T05:32:05;99521.30;;;11.14;67.26
50590;BME280;36547;50.514;30.840;2023-04-25T05:33:07;99519.41;;;11.16;66.52
50590;BME280;36547;50.514;30.840;2023-04-25T05:34:10;99527.95;;;11.21;66.92
50590;BME280;36547;50.514;30.840;2023-04-25T05:35:26;99526.05;;;11.23;66.46
50590;BME280;36547;50.514;30.840;2023-04-25T05:36:29;99520.41;;;11.28;66.72
50590;BME280;36547;50.514;30.840;2023-04-25T05:37:32;99520.13;;;11.32;66.93
50590;BME280;36547;50.514;30.840;2023-04-25T05:38:36;99519.93;;;11.36;66.56
50590;BME280;36547;50.514;30.840;2023-04-25T05:39:56;99525.06;;;11.39;66.52